Time;durP1;ratioP1;P1;durP2;ratioP2;P2;SDS_P1;SDS_P2;PMS_P1;PMS_P2;Temp;Humidity;BMP_temperature;BMP_pressure;BME280_temperature;BME280_humidity;BME280_pressure;Samples;Min_cycle;Max_cycle;Signal;HPM_P1;HPM_P2
2022/05/10 00:00:15;;;;;;;6.80;3.92;;;16.20;92.90;;;;;;5095490;28;20052;-78
2022/05/10 00:02:44;;;;;;;7.70;4.93;;;16.20;93.10;;;;;;5095275;28;20020;-81
2022/05/10 00:05:10;;;;;;;9.02;4.22;;;16.20;92.50;;;;;;5077309;28;20450;-80
2022/05/10 00:07:37;;;;;;;8.48;3.65;;;16.30;92.40;;;;;;5095131;28;20032;-80
2022/05/10 00:10:08;;;;;;;7.13;3.70;;;16.30;92.60;;;;;;5095251;28;20043;-81
2022/05/10 00:12:34;;;;;;;7.50;4.15;;;16.30;92.60;;;;;;5095232;28;20261;-79
2022/05/10 00:14:59;;;;;;;8.32;4.10;;;16.30;92.60;;;;;;5095046;28;20449;-82
2022/05/10 00:17:33;;;;;;;8.00;4.60;;;16.30;93.00;;;;;;5095033;28;20028;-81
2022/05/10 00:19:59;;;;;;;8.35;4.28;;;16.30;93.10;;;;;;5094867;28;20020;-81
2022/05/10 00:22:24;;;;;;;5.97;3.92;;;16.20;93.00;;;;;;5094996;28;20103;-81
2022/05/10 00:24:50;;;;;;;8.90;4.38;;;16.20;93.20;;;;;;5094957;28;20031;-81
2022/05/10 00:27:17;;;;;;;6.07;3.72;;;16.10;93.30;;;;;;5094840;28;20019;-80
2022/05/10 00:29:42;;;;;;;7.70;3.40;;;16.10;93.30;;;;;;5094746;28;20017;-78
2022/05/10 00:32:09;;;;;;;7.78;4.30;;;16.10;93.40;;;;;;5094794;28;20021;-81
2022/05/10 00:34:35;;;;;;;7.82;3.72;;;16.10;93.40;;;;;;5094627;28;20020;-76
2022/05/10 00:37:01;;;;;;;12.13;3.80;;;16.10;93.10;;;;;;5094589;28;20027;-83
2022/05/10 00:39:26;;;;;;;8.00;3.80;;;16.20;93.50;;;;;;5094637;28;20071;-80
2022/05/10 00:42:01;;;;;;;5.07;3.30;;;16.10;93.70;;;;;;5094762;28;20097;-80
2022/05/10 00:44:35;;;;;;;6.68;3.30;;;16.10;93.80;;;;;;5094619;28;20447;-78
2022/05/10 00:47:08;;;;;;;6.50;3.08;;;16.20;93.60;;;;;;5094206;28;20024;-82
2022/05/10 00:49:45;;;;;;;5.88;3.28;;;16.20;93.60;;;;;;5094467;28;20032;-84
2022/05/10 00:52:25;;;;;;;6.07;3.65;;;16.20;94.10;;;;;;5094467;28;20417;-83
2022/05/10 00:54:56;;;;;;;5.78;3.58;;;16.20;93.90;;;;;;5094303;28;20432;-79
2022/05/10 00:57:40;;;;;;;5.05;3.15;;;16.20;94.00;;;;;;5094166;28;20107;-79
2022/05/10 01:00:18;;;;;;;6.10;3.20;;;16.30;94.20;;;;;;5076177;28;20028;-79
2022/05/10 01:02:47;;;;;;;7.85;3.55;;;16.20;94.70;;;;;;5094135;28;20496;-80
2022/05/10 01:05:19;;;;;;;10.70;4.22;;;16.20;94.60;;;;;;5094201;28;20032;-82
2022/05/10 01:07:54;;;;;;;7.53;3.67;;;16.20;94.40;;;;;;5093897;28;20048;-80
2022/05/10 01:10:35;;;;;;;4.70;3.20;;;16.30;94.60;;;;;;5094034;28;20024;-75
2022/05/10 01:13:14;;;;;;;5.63;3.80;;;16.30;94.40;;;;;;5094017;28;20478;-78
2022/05/10 01:15:44;;;;;;;5.05;2.75;;;16.50;94.10;;;;;;5093913;28;20031;-79
2022/05/10 01:18:10;;;;;;;8.90;3.75;;;16.60;93.90;;;;;;5093851;28;20070;-82
2022/05/10 01:20:40;;;;;;;5.13;3.58;;;16.60;93.90;;;;;;5093799;28;20133;-80
2022/05/10 01:23:32;;;;;;;5.07;3.50;;;16.60;94.10;;;;;;5093871;28;20032;-78
2022/05/10 01:26:00;;;;;;;5.90;3.95;;;16.50;94.30;;;;;;5093764;28;20024;-77
2022/05/10 01:28:50;;;;;;;6.82;4.20;;;16.20;95.00;;;;;;5093664;28;20043;-80
2022/05/10 01:31:25;;;;;;;9.35;5.10;;;15.80;95.90;;;;;;5093740;28;20032;-80
2022/05/10 01:34:01;;;;;;;6.55;3.58;;;15.50;96.60;;;;;;5093700;28;20027;-86
2022/05/10 01:36:36;;;;;;;8.68;4.78;;;15.40;97.20;;;;;;5093629;28;20111;-78
2022/05/10 01:39:33;;;;;;;11.48;5.38;;;15.30;97.60;;;;;;5093405;28;20031;-78
2022/05/10 01:42:31;;;;;;;10.45;5.25;;;15.20;98.00;;;;;;5075315;28;20077;-77
2022/05/10 01:45:04;;;;;;;10.77;5.35;;;15.10;98.40;;;;;;5053718;28;20561;-75
2022/05/10 01:47:32;;;;;;;8.60;5.28;;;15.00;98.70;;;;;;5093393;28;20024;-81
2022/05/10 01:50:17;;;;;;;9.88;5.72;;;14.90;99.40;;;;;;5093481;28;20035;-78
2022/05/10 01:53:05;;;;;;;13.80;5.47;;;14.80;99.40;;;;;;5093205;28;20128;-81
2022/05/10 01:55:37;;;;;;;18.42;6.78;;;14.80;99.60;;;;;;5093342;28;20112;-80
2022/05/10 01:58:16;;;;;;;10.32;6.07;;;14.70;99.70;;;;;;5093266;28;20043;-83
2022/05/10 02:00:47;;;;;;;15.02;6.50;;;14.70;99.90;;;;;;5093279;28;20035;-78
2022/05/10 02:03:34;;;;;;;14.55;6.15;;;14.60;99.90;;;;;;5075094;28;20023;-79
2022/05/10 02:06:03;;;;;;;10.80;6.25;;;14.60;99.90;;;;;;5093177;28;20113;-80
2022/05/10 02:09:05;;;;;;;19.08;6.35;;;14.70;99.90;;;;;;5093041;28;20496;-78
2022/05/10 02:11:57;;;;;;;8.63;5.25;;;14.70;99.90;;;;;;5037004;28;20036;-78
2022/05/10 02:14:39;;;;;;;12.30;6.78;;;14.60;99.90;;;;;;5045655;28;20168;-79
2022/05/10 02:17:27;;;;;;;12.27;6.97;;;14.70;99.90;;;;;;5093891;28;20058;-80
2022/05/10 02:20:00;;;;;;;18.02;8.60;;;14.60;99.90;;;;;;5092967;28;20103;-76
2022/05/10 02:22:49;;;;;;;13.43;8.52;;;14.60;99.90;;;;;;5092924;28;20496;-76
2022/05/10 02:25:22;;;;;;;13.00;8.48;;;14.60;99.90;;;;;;5092908;28;20035;-76
2022/05/10 02:28:44;;;;;;;18.60;9.20;;;14.60;99.90;;;;;;5092931;28;20481;-77
2022/05/10 02:33:06;;;;;;;14.90;8.63;;;14.60;99.90;;;;;;4990999;28;20047;-78
2022/05/10 02:34:19;;;;;;;21.05;9.63;;;14.70;99.90;;;;;;5092789;28;20036;-76
2022/05/10 02:36:45;;;;;;;17.10;9.25;;;14.60;99.90;;;;;;5092827;28;20482;-80
2022/05/10 02:39:11;;;;;;;19.92;10.55;;;14.70;99.90;;;;;;5092712;28;20032;-76
2022/05/10 02:41:36;;;;;;;19.20;10.07;;;14.60;99.90;;;;;;5092667;28;20024;-78
2022/05/10 02:44:04;;;;;;;19.77;10.02;;;14.60;99.90;;;;;;5092794;28;20031;-77
2022/05/10 02:46:30;;;;;;;23.02;11.07;;;14.50;99.90;;;;;;5092769;28;20035;-79
2022/05/10 02:48:55;;;;;;;23.05;11.15;;;14.50;99.90;;;;;;5092728;28;20024;-77
2022/05/10 02:51:21;;;;;;;20.95;10.88;;;14.40;99.90;;;;;;5092329;28;20521;-75
2022/05/10 02:53:48;;;;;;;23.65;11.40;;;14.40;99.90;;;;;;5092736;28;20035;-78
2022/05/10 02:56:20;;;;;;;21.65;11.20;;;14.30;99.90;;;;;;5092599;28;20024;-79
2022/05/10 02:59:02;;;;;;;21.92;10.18;;;14.30;99.90;;;;;;5092758;28;20101;-79
2022/05/10 03:01:27;;;;;;;19.88;9.82;;;14.30;99.90;;;;;;5092714;28;20043;-83
2022/05/10 03:03:53;;;;;;;17.25;9.10;;;14.30;99.90;;;;;;5092586;28;20398;-77
2022/05/10 03:06:22;;;;;;;16.83;9.30;;;14.40;99.90;;;;;;5092636;28;20030;-79
2022/05/10 03:08:48;;;;;;;19.42;10.35;;;14.50;99.90;;;;;;5092249;28;20082;-77
2022/05/10 03:11:15;;;;;;;20.60;11.00;;;14.50;99.90;;;;;;5092454;28;20024;-76
2022/05/10 03:13:41;;;;;;;16.40;9.20;;;14.40;99.90;;;;;;5092373;28;20110;-80
2022/05/10 03:16:07;;;;;;;20.77;9.48;;;14.40;99.90;;;;;;5092498;28;20024;-77
2022/05/10 03:18:33;;;;;;;18.02;8.57;;;14.40;99.90;;;;;;5092317;28;20335;-81
2022/05/10 03:20:59;;;;;;;17.10;6.72;;;14.50;99.90;;;;;;5092216;28;20024;-79
2022/05/10 03:23:25;;;;;;;13.30;7.10;;;14.50;99.50;;;;;;5093333;28;20077;-82
2022/05/10 03:25:50;;;;;;;13.60;7.15;;;14.50;99.30;;;;;;5096151;28;20043;-79
2022/05/10 03:28:16;;;;;;;15.50;6.25;;;14.50;99.30;;;;;;5096195;28;20111;-80
2022/05/10 03:30:42;;;;;;;7.88;4.20;;;14.50;98.80;;;;;;5096208;28;20020;-81
2022/05/10 03:33:08;;;;;;;11.10;5.43;;;14.50;98.10;;;;;;5096028;28;20389;-79
2022/05/10 03:35:33;;;;;;;8.15;4.75;;;14.60;97.60;;;;;;5096070;28;20103;-81
2022/05/10 03:37:59;;;;;;;8.70;5.13;;;14.60;97.40;;;;;;5096246;28;20419;-79
2022/05/10 03:40:24;;;;;;;6.93;3.75;;;14.60;97.40;;;;;;5095953;28;20470;-81
2022/05/10 03:42:53;;;;;;;8.48;4.68;;;14.60;96.80;;;;;;5095791;28;20103;-81
2022/05/10 03:45:21;;;;;;;7.32;4.22;;;14.60;96.50;;;;;;5095918;28;20088;-79
2022/05/10 03:47:48;;;;;;;8.60;4.22;;;14.60;95.90;;;;;;5095803;28;20113;-79
2022/05/10 03:50:17;;;;;;;7.10;3.90;;;14.60;96.30;;;;;;5095686;28;20032;-77
2022/05/10 03:52:43;;;;;;;8.27;4.65;;;14.50;96.20;;;;;;5095448;28;20537;-76
2022/05/10 03:55:12;;;;;;;7.85;3.78;;;14.50;96.20;;;;;;5077598;28;20145;-77
2022/05/10 03:57:37;;;;;;;5.63;3.42;;;14.50;96.20;;;;;;5095633;28;20099;-77
2022/05/10 04:00:07;;;;;;;6.38;3.83;;;14.40;96.20;;;;;;5095596;28;20162;-77
2022/05/10 04:02:32;;;;;;;5.85;3.45;;;14.40;96.40;;;;;;5095425;28;20063;-77
2022/05/10 04:04:58;;;;;;;8.40;4.20;;;14.30;96.50;;;;;;5095918;28;20153;-77
2022/05/10 04:07:24;;;;;;;7.78;4.45;;;14.20;96.80;;;;;;5095519;28;20020;-78
2022/05/10 04:09:49;;;;;;;5.05;3.50;;;14.10;97.30;;;;;;5095171;28;20085;-82
2022/05/10 04:12:15;;;;;;;7.90;4.00;;;14.10;97.70;;;;;;5095366;28;20543;-80
2022/05/10 04:14:41;;;;;;;9.02;4.72;;;14.00;98.20;;;;;;5095278;28;20021;-77
2022/05/10 04:17:06;;;;;;;8.93;5.03;;;13.90;98.70;;;;;;5077112;28;20035;-84
2022/05/10 04:19:32;;;;;;;10.88;5.93;;;13.80;99.50;;;;;;5077152;28;20085;-80
2022/05/10 04:21:58;;;;;;;9.75;5.85;;;13.70;99.90;;;;;;5095055;28;20031;-80
2022/05/10 04:24:23;;;;;;;11.70;7.53;;;13.70;99.90;;;;;;5095149;28;20498;-79
2022/05/10 04:26:49;;;;;;;10.55;6.82;;;13.50;99.90;;;;;;5094954;28;20435;-74
2022/05/10 04:29:15;;;;;;;12.70;7.32;;;13.40;99.90;;;;;;5095048;28;20558;-73
2022/05/10 04:31:41;;;;;;;13.15;8.15;;;13.40;99.90;;;;;;5094939;28;20103;-73
2022/05/10 04:34:06;;;;;;;17.17;8.15;;;13.30;99.90;;;;;;5094409;28;20443;-74
2022/05/10 04:36:32;;;;;;;13.43;6.95;;;13.20;99.90;;;;;;5094771;28;20028;-73
2022/05/10 04:38:58;;;;;;;19.90;8.07;;;13.20;99.90;;;;;;5094644;28;20035;-71
2022/05/10 04:41:29;;;;;;;15.30;8.70;;;13.20;99.90;;;;;;5094631;28;20478;-72
2022/05/10 04:44:08;;;;;;;18.13;9.32;;;13.10;99.90;;;;;;5094546;28;20065;-71
2022/05/10 04:46:36;;;;;;;16.38;9.77;;;13.10;99.90;;;;;;5094506;28;20028;-71
2022/05/10 04:49:03;;;;;;;19.60;11.75;;;13.10;99.90;;;;;;5094437;28;20024;-73
2022/05/10 04:51:29;;;;;;;20.85;9.23;;;13.10;99.90;;;;;;5094288;28;20052;-72
2022/05/10 04:53:56;;;;;;;18.33;10.93;;;13.10;99.90;;;;;;5094378;28;20024;-74
2022/05/10 04:56:22;;;;;;;14.38;8.02;;;13.00;99.90;;;;;;5094349;28;20082;-73
2022/05/10 04:58:48;;;;;;;20.65;10.32;;;13.00;99.90;;;;;;5094194;28;20482;-73
2022/05/10 05:01:15;;;;;;;15.88;8.70;;;13.00;99.90;;;;;;5094265;28;20058;-73
2022/05/10 05:03:46;;;;;;;18.42;9.27;;;13.00;99.90;;;;;;5094284;28;20035;-75
2022/05/10 05:06:12;;;;;;;17.60;9.43;;;12.90;99.90;;;;;;5094130;28;20028;-73
2022/05/10 05:08:38;;;;;;;18.65;10.57;;;12.90;99.90;;;;;;5094046;28;20086;-72
2022/05/10 05:11:03;;;;;;;19.33;10.70;;;12.90;99.90;;;;;;5094003;28;20031;-75
2022/05/10 05:13:29;;;;;;;18.17;9.25;;;12.90;99.90;;;;;;5093995;28;20060;-73
2022/05/10 05:15:55;;;;;;;18.58;10.90;;;12.80;99.90;;;;;;5093861;28;20106;-73
2022/05/10 05:18:21;;;;;;;16.42;9.93;;;12.80;99.90;;;;;;5093943;28;20024;-72
2022/05/10 05:20:48;;;;;;;17.42;9.02;;;12.80;99.90;;;;;;5075516;28;20114;-74
2022/05/10 05:23:16;;;;;;;18.13;9.40;;;12.80;99.90;;;;;;5093865;28;20114;-76
2022/05/10 05:25:41;;;;;;;;;;;12.80;99.90;;;;;;5094228;28;20024;-73
2022/05/10 05:28:09;;;;;;;24.83;11.88;;;12.80;99.90;;;;;;5093727;28;19999;-74
2022/05/10 05:30:35;;;;;;;23.48;10.43;;;12.80;99.90;;;;;;5093597;28;20415;-74
2022/05/10 05:33:02;;;;;;;25.63;10.43;;;12.80;99.90;;;;;;5093656;28;20032;-73
2022/05/10 05:35:28;;;;;;;15.48;9.05;;;12.80;99.90;;;;;;5094006;28;20509;-73
2022/05/10 05:37:54;;;;;;;19.13;8.02;;;12.80;99.90;;;;;;5093578;28;20035;-76
2022/05/10 05:40:22;;;;;;;18.77;10.60;;;12.80;99.90;;;;;;5093544;28;20066;-74
2022/05/10 05:42:49;;;;;;;15.13;7.43;;;12.80;99.90;;;;;;5093223;28;20394;-73
2022/05/10 05:45:17;;;;;;;13.10;6.85;;;12.70;99.90;;;;;;5075130;28;20436;-72
2022/05/10 05:47:43;;;;;;;18.23;8.18;;;12.70;99.90;;;;;;5092768;28;20016;-74
2022/05/10 05:50:11;;;;;;;17.17;8.30;;;12.70;99.90;;;;;;5093364;28;20524;-74
2022/05/10 05:52:37;;;;;;;15.40;8.55;;;12.70;99.90;;;;;;5093181;28;20391;-73
2022/05/10 05:55:04;;;;;;;11.00;6.45;;;12.60;99.90;;;;;;5092434;28;20031;-74
2022/05/10 05:57:30;;;;;;;11.73;7.10;;;12.70;99.90;;;;;;5093107;28;20442;-73
2022/05/10 05:59:58;;;;;;;13.15;7.68;;;12.70;99.90;;;;;;5092846;28;20070;-73
2022/05/10 06:02:25;;;;;;;17.38;9.25;;;12.90;99.90;;;;;;5093101;28;20126;-73
2022/05/10 06:04:52;;;;;;;9.20;5.50;;;12.90;99.90;;;;;;5093046;28;20028;-73
2022/05/10 06:07:18;;;;;;;17.55;9.15;;;13.00;99.90;;;;;;5074866;28;20028;-73
2022/05/10 06:09:45;;;;;;;13.98;7.75;;;13.10;99.90;;;;;;5092866;28;20478;-73
2022/05/10 06:12:13;;;;;;;11.73;6.00;;;13.00;99.90;;;;;;5092818;28;20035;-73
2022/05/10 06:14:39;;;;;;;15.30;7.18;;;13.10;99.90;;;;;;5093032;28;20044;-76
2022/05/10 06:17:05;;;;;;;13.05;7.82;;;13.10;99.90;;;;;;5092765;28;20082;-73
2022/05/10 06:19:33;;;;;;;9.85;6.28;;;13.20;99.90;;;;;;5092846;28;20024;-73
2022/05/10 06:21:59;;;;;;;13.43;7.30;;;13.20;99.90;;;;;;5092586;28;20028;-73
2022/05/10 06:24:26;;;;;;;16.25;7.38;;;13.10;99.90;;;;;;5092626;28;20080;-73
2022/05/10 06:26:52;;;;;;;14.68;8.00;;;13.10;99.90;;;;;;5092581;28;20031;-73
2022/05/10 06:29:17;;;;;;;16.85;7.57;;;13.10;99.90;;;;;;5092710;28;20032;-72
2022/05/10 06:31:46;;;;;;;14.50;8.93;;;13.00;99.90;;;;;;5092514;28;20034;-74
2022/05/10 06:34:12;;;;;;;15.80;8.38;;;13.00;99.90;;;;;;5092641;28;20435;-73
2022/05/10 06:36:38;;;;;;;15.88;7.47;;;13.00;99.90;;;;;;5092516;28;20421;-73
2022/05/10 06:39:05;;;;;;;16.55;8.98;;;13.00;99.90;;;;;;5092427;28;20566;-74
2022/05/10 06:41:32;;;;;;;12.43;8.90;;;13.10;99.90;;;;;;5074185;28;20047;-73
2022/05/10 06:43:58;;;;;;;14.97;8.07;;;13.20;99.90;;;;;;5092449;28;20061;-73
2022/05/10 06:46:25;;;;;;;22.48;11.32;;;13.30;99.90;;;;;;5092366;28;20520;-73
2022/05/10 06:48:51;;;;;;;15.18;8.75;;;13.30;99.90;;;;;;5092401;28;20024;-72
2022/05/10 06:51:19;;;;;;;15.25;8.65;;;13.30;99.90;;;;;;5092296;28;20052;-73
2022/05/10 06:53:44;;;;;;;;;;;13.20;99.90;;;;;;5092735;28;20385;-73
2022/05/10 06:56:10;;;;;;;14.82;6.95;;;13.30;99.90;;;;;;5092426;28;20002;-74
2022/05/10 06:58:37;;;;;;;22.42;11.43;;;13.30;99.90;;;;;;5077317;28;20127;-74
2022/05/10 07:01:05;;;;;;;12.98;7.53;;;13.40;99.90;;;;;;5096299;28;20107;-74
2022/05/10 07:03:33;;;;;;;26.83;11.80;;;13.40;99.90;;;;;;5096513;28;20020;-73
2022/05/10 07:05:59;;;;;;;;;;;13.30;99.90;;;;;;5096763;28;20046;-72
2022/05/10 07:08:25;;;;;;;17.40;8.95;;;13.20;99.90;;;;;;5096276;28;19911;-73
2022/05/10 07:10:51;;;;;;;18.48;9.95;;;13.20;99.90;;;;;;5077984;28;20024;-74
2022/05/10 07:13:19;;;;;;;20.00;10.93;;;13.30;99.90;;;;;;5096359;28;20078;-74
2022/05/10 07:15:46;;;;;;;26.30;12.98;;;13.30;99.90;;;;;;5096213;28;20028;-74
2022/05/10 07:18:12;;;;;;;19.40;9.32;;;13.30;99.90;;;;;;5096246;28;20024;-73
2022/05/10 07:20:39;;;;;;;19.65;10.85;;;13.50;99.90;;;;;;5077835;28;20035;-72
2022/05/10 07:23:05;;;;;;;21.75;10.27;;;13.50;99.90;;;;;;5095970;28;20111;-74
2022/05/10 07:25:31;;;;;;;22.33;10.75;;;13.50;99.90;;;;;;5096173;28;20035;-73
2022/05/10 07:27:57;;;;;;;17.60;9.48;;;13.50;99.90;;;;;;5095946;28;20477;-74
2022/05/10 07:30:24;;;;;;;26.52;10.90;;;13.60;99.90;;;;;;5077623;28;20059;-74
2022/05/10 07:32:51;;;;;;;16.67;9.07;;;13.60;99.90;;;;;;5095582;28;20032;-73
2022/05/10 07:36:23;;;;;;;19.30;9.35;;;13.60;99.90;;;;;;5095717;28;20032;-73
2022/05/10 07:38:04;;;;;;;17.38;7.97;;;13.60;99.90;;;;;;5095558;28;20039;-74
2022/05/10 07:40:30;;;;;;;16.55;8.43;;;13.70;99.90;;;;;;5095661;28;20036;-73
2022/05/10 07:42:55;;;;;;;11.10;6.47;;;13.80;99.90;;;;;;5095348;28;20465;-73
2022/05/10 07:45:21;;;;;;;18.65;9.02;;;14.00;99.90;;;;;;5095698;28;20020;-73
2022/05/10 07:47:47;;;;;;;15.25;7.93;;;14.10;99.90;;;;;;5095574;28;20016;-73
2022/05/10 07:50:12;;;;;;;15.05;7.88;;;14.20;99.90;;;;;;5095478;28;20029;-74
2022/05/10 07:52:41;;;;;;;14.63;7.70;;;14.20;99.90;;;;;;5095377;28;20060;-74
2022/05/10 07:55:08;;;;;;;14.43;7.95;;;14.30;99.90;;;;;;5095586;28;20028;-73
2022/05/10 07:57:34;;;;;;;16.95;7.57;;;14.30;99.90;;;;;;5095493;28;20028;-74
2022/05/10 07:59:59;;;;;;;10.15;5.93;;;14.50;99.90;;;;;;5095320;28;20114;-74
2022/05/10 08:02:25;;;;;;;8.88;6.00;;;14.70;99.90;;;;;;5095163;28;20068;-74
2022/05/10 08:04:51;;;;;;;11.73;7.32;;;14.80;99.90;;;;;;5095302;28;20435;-74
2022/05/10 08:07:16;;;;;;;9.45;6.55;;;14.80;99.90;;;;;;5095351;28;20059;-73
2022/05/10 08:09:42;;;;;;;12.55;7.38;;;14.80;99.90;;;;;;5094884;28;20051;-73
2022/05/10 08:12:08;;;;;;;11.55;6.65;;;14.50;99.90;;;;;;5076844;28;20039;-73
2022/05/10 08:14:34;;;;;;;19.52;8.02;;;14.20;99.90;;;;;;5095167;28;20024;-74
2022/05/10 08:16:59;;;;;;;13.35;6.90;;;14.10;99.90;;;;;;5094904;28;20441;-74
2022/05/10 08:19:25;;;;;;;18.77;7.00;;;14.00;99.90;;;;;;5094964;28;20374;-73
2022/05/10 08:21:55;;;;;;;20.13;9.55;;;14.00;99.90;;;;;;5094819;28;20439;-73
2022/05/10 08:24:21;;;;;;;14.75;8.55;;;14.10;99.90;;;;;;5094784;28;20016;-74
2022/05/10 08:26:47;;;;;;;14.75;7.82;;;14.20;99.90;;;;;;5094802;28;20089;-74
2022/05/10 08:29:13;;;;;;;15.18;7.55;;;14.30;99.90;;;;;;5094911;28;20016;-73
2022/05/10 08:31:40;;;;;;;9.23;6.05;;;14.40;99.90;;;;;;5094605;28;20028;-72
2022/05/10 08:34:06;;;;;;;11.65;6.57;;;14.40;99.90;;;;;;5094638;28;20016;-74
2022/05/10 08:36:32;;;;;;;16.13;6.47;;;14.40;99.90;;;;;;5094771;28;20036;-74
2022/05/10 08:38:58;;;;;;;11.52;6.95;;;14.30;99.90;;;;;;5094543;28;20406;-72
2022/05/10 08:41:48;;;;;;;15.18;9.32;;;14.20;99.90;;;;;;5094538;28;20046;-73
2022/05/10 08:44:18;;;;;;;13.65;6.97;;;14.20;99.90;;;;;;5094573;28;20363;-73
2022/05/10 08:46:48;;;;;;;19.98;7.68;;;14.20;99.90;;;;;;5076464;28;20066;-74
2022/05/10 08:49:32;;;;;;;14.93;8.05;;;14.20;99.90;;;;;;5094598;28;20058;-74
2022/05/10 08:51:58;;;;;;;17.33;7.03;;;14.30;99.90;;;;;;5094085;28;20056;-73
2022/05/10 08:54:26;;;;;;;14.25;8.98;;;14.20;99.90;;;;;;5094448;28;20027;-74
2022/05/10 08:57:00;;;;;;;12.15;7.65;;;14.20;99.90;;;;;;5095184;28;20031;-73
2022/05/10 08:59:35;;;;;;;12.88;7.60;;;14.10;99.90;;;;;;5094396;28;20028;-72
2022/05/10 09:02:38;;;;;;;14.52;8.77;;;14.10;99.90;;;;;;5094121;28;20028;-72
2022/05/10 09:05:29;;;;;;;14.98;7.95;;;13.80;99.90;;;;;;5094170;28;20030;-73
2022/05/10 09:08:09;;;;;;;13.73;6.57;;;13.70;99.90;;;;;;5094072;28;20512;-73
2022/05/10 09:10:45;;;;;;;18.75;8.40;;;13.80;99.90;;;;;;5094304;28;20478;-73
2022/05/10 09:13:15;;;;;;;13.35;6.95;;;13.80;99.90;;;;;;5093788;28;20020;-73
2022/05/10 09:15:58;;;;;;;13.32;5.80;;;13.90;99.90;;;;;;5094007;28;20043;-73
2022/05/10 09:18:46;;;;;;;16.60;6.18;;;14.20;99.90;;;;;;5093955;28;20099;-75
2022/05/10 09:21:26;;;;;;;13.13;7.05;;;14.60;99.90;;;;;;5092650;28;20028;-75
2022/05/10 09:24:19;;;;;;;11.88;6.28;;;14.70;99.90;;;;;;5093577;28;20095;-74
2022/05/10 09:26:52;;;;;;;10.68;4.50;;;14.70;99.90;;;;;;5075575;28;20085;-73
2022/05/10 09:29:36;;;;;;;7.93;4.53;;;14.90;99.90;;;;;;5093784;28;20296;-74
2022/05/10 09:35:17;;;;;;;9.55;4.38;;;15.50;99.90;;;;;;5093584;28;20069;-73
2022/05/10 09:38:01;;;;;;;11.35;5.05;;;16.00;99.90;;;;;;5093543;28;20032;-75
2022/05/10 09:40:32;;;;;;;6.45;3.75;;;15.80;99.90;;;;;;5093408;28;20024;-73
2022/05/10 09:43:32;;;;;;;7.95;4.55;;;15.60;99.90;;;;;;5074936;28;20533;-73
2022/05/10 09:46:12;;;;;;;10.00;4.32;;;15.40;99.90;;;;;;5092594;28;20081;-74
2022/05/10 09:48:40;;;;;;;6.25;4.40;;;15.30;99.90;;;;;;5093354;28;20032;-73
2022/05/10 09:51:41;;;;;;;10.20;5.32;;;15.30;99.90;;;;;;5093248;28;20041;-73
2022/05/10 09:54:30;;;;;;;8.40;4.53;;;15.10;99.90;;;;;;5093141;28;20020;-72
2022/05/10 09:56:58;;;;;;;7.63;4.88;;;15.00;99.90;;;;;;5092992;28;20501;-74
2022/05/10 09:59:24;;;;;;;;;;;15.30;99.90;;;;;;5093603;28;20016;-74
2022/05/10 10:01:56;;;;;;;7.33;4.20;;;15.40;99.90;;;;;;5092885;28;19908;-74
2022/05/10 10:04:31;;;;;;;6.55;4.30;;;15.40;99.90;;;;;;5093180;28;20267;-74
2022/05/10 10:07:08;;;;;;;5.45;4.20;;;15.40;99.90;;;;;;5092910;28;20020;-74
2022/05/10 10:09:43;;;;;;;8.07;5.20;;;15.50;99.90;;;;;;5092825;28;20065;-73
2022/05/10 10:12:32;;;;;;;9.98;5.22;;;15.40;99.90;;;;;;5092721;28;20036;-73
2022/05/10 10:14:58;;;;;;;8.05;4.68;;;15.50;99.90;;;;;;5092725;28;20032;-73
2022/05/10 10:17:36;;;;;;;11.30;4.93;;;15.50;99.90;;;;;;5092851;28;20107;-74
2022/05/10 10:20:35;;;;;;;9.80;4.75;;;15.80;99.90;;;;;;5092644;28;20036;-74
2022/05/10 10:23:07;;;;;;;6.25;4.25;;;15.70;99.90;;;;;;5092578;28;20028;-72
2022/05/10 10:25:44;;;;;;;8.85;4.38;;;15.50;99.90;;;;;;5092771;28;20026;-75
2022/05/10 10:28:31;;;;;;;12.40;4.95;;;15.50;99.90;;;;;;5092597;28;20028;-74
2022/05/10 10:31:15;;;;;;;8.98;4.68;;;15.50;99.90;;;;;;5092460;28;20382;-76
2022/05/10 10:33:57;;;;;;;8.82;5.55;;;15.50;99.90;;;;;;5092073;28;20469;-74
2022/05/10 10:36:30;;;;;;;10.70;5.57;;;15.20;99.90;;;;;;5092635;28;20067;-74
2022/05/10 10:39:24;;;;;;;9.88;5.20;;;15.30;99.90;;;;;;5092459;28;20424;-74
2022/05/10 10:41:56;;;;;;;8.15;4.35;;;15.40;99.90;;;;;;5092340;28;20028;-74
2022/05/10 10:44:31;;;;;;;10.80;5.97;;;15.40;99.90;;;;;;5092353;28;20439;-73
2022/05/10 10:47:18;;;;;;;7.53;4.55;;;15.40;99.90;;;;;;5092261;28;20028;-75
2022/05/10 10:50:05;;;;;;;12.98;4.90;;;15.40;99.90;;;;;;5074218;28;20024;-75
2022/05/10 10:52:31;;;;;;;6.90;4.30;;;15.40;99.90;;;;;;5074129;28;20498;-74
2022/05/10 10:54:59;;;;;;;11.52;5.35;;;15.10;99.90;;;;;;5092134;28;20071;-76
2022/05/10 10:57:38;;;;;;;12.15;6.88;;;15.00;99.90;;;;;;5092377;28;20049;-76
2022/05/10 11:00:09;;;;;;;11.68;5.60;;;14.90;99.90;;;;;;5092283;28;20028;-76
2022/05/10 11:02:43;;;;;;;10.63;5.55;;;14.70;99.90;;;;;;5092229;28;20051;-74
2022/05/10 11:06:00;;;;;;;16.50;6.82;;;14.90;99.90;;;;;;5092217;28;20044;-75
2022/05/10 11:08:57;;;;;;;8.00;5.85;;;15.10;99.90;;;;;;5036490;28;20176;-75
2022/05/10 11:11:28;;;;;;;11.50;6.05;;;14.80;99.90;;;;;;5092310;28;20497;-77
2022/05/10 11:14:24;;;;;;;12.35;6.28;;;14.70;99.90;;;;;;5092095;28;20032;-74
2022/05/10 11:17:15;;;;;;;11.32;6.18;;;14.60;99.90;;;;;;5092192;28;20047;-75
2022/05/10 11:19:47;;;;;;;9.77;6.15;;;14.60;99.90;;;;;;5092175;28;20050;-73
2022/05/10 11:22:31;;;;;;;17.92;7.72;;;14.50;99.90;;;;;;5092017;28;20073;-74
2022/05/10 11:25:17;;;;;;;12.95;5.63;;;14.40;99.90;;;;;;5091980;28;20028;-74
2022/05/10 11:28:11;;;;;;;14.23;7.43;;;14.20;99.90;;;;;;5092117;28;20047;-76
2022/05/10 11:31:14;;;;;;;15.70;6.63;;;14.10;99.90;;;;;;5092067;28;20024;-76
2022/05/10 11:33:56;;;;;;;13.30;5.90;;;14.30;99.90;;;;;;5091293;28;20413;-75
2022/05/10 11:36:33;;;;;;;20.20;8.20;;;14.30;99.90;;;;;;5092042;28;20016;-76
2022/05/10 11:39:14;;;;;;;9.00;5.28;;;14.30;99.90;;;;;;5073635;28;20517;-75
2022/05/10 11:42:02;;;;;;;15.43;6.68;;;14.20;99.90;;;;;;5092100;28;20046;-75
2022/05/10 11:44:59;;;;;;;11.55;5.95;;;14.20;99.90;;;;;;5092900;28;20477;-76
2022/05/10 11:48:04;;;;;;;17.90;6.82;;;14.30;99.90;;;;;;5095729;28;20028;-75
2022/05/10 11:53:55;;;;;;;15.55;6.85;;;14.90;99.90;;;;;;5095486;28;20475;-74
2022/05/10 11:56:21;;;;;;;8.18;4.57;;;15.20;99.90;;;;;;5077327;28;20059;-77
2022/05/10 11:58:48;;;;;;;12.15;6.30;;;15.20;99.90;;;;;;5095539;28;20056;-74
2022/05/10 12:01:43;;;;;;;12.60;6.97;;;15.10;99.90;;;;;;5095399;28;20028;-75
2022/05/10 12:04:31;;;;;;;11.68;5.20;;;14.90;99.90;;;;;;5095153;28;20529;-77
2022/05/10 12:07:19;;;;;;;11.75;6.60;;;14.70;99.90;;;;;;5095210;28;20028;-75
2022/05/10 12:10:25;;;;;;;12.77;6.55;;;14.60;99.90;;;;;;5095219;28;20504;-77
2022/05/10 12:12:59;;;;;;;14.65;7.15;;;14.30;99.90;;;;;;5094654;28;20482;-76
2022/05/10 12:21:37;;;;;;;9.40;4.97;;;14.40;99.90;;;;;;5056336;28;20040;-77
2022/05/10 12:24:24;;;;;;;12.95;6.32;;;14.20;99.90;;;;;;5076751;28;20508;-76
2022/05/10 12:26:51;;;;;;;10.77;6.25;;;14.40;99.90;;;;;;5094988;28;20378;-75
2022/05/10 12:29:38;;;;;;;18.65;5.05;;;14.40;99.90;;;;;;5094842;28;20029;-74
2022/05/10 12:32:20;;;;;;;9.95;5.50;;;14.40;99.90;;;;;;5094758;28;20157;-75
2022/05/10 12:34:52;;;;;;;11.18;5.68;;;14.30;99.90;;;;;;5094815;28;20024;-76
2022/05/10 12:37:30;;;;;;;10.77;5.18;;;14.30;99.90;;;;;;5094698;28;20085;-77
2022/05/10 12:40:08;;;;;;;14.27;6.60;;;14.30;99.90;;;;;;5094686;28;20020;-74
2022/05/10 12:42:51;;;;;;;;;;;14.20;99.90;;;;;;5094943;28;20057;-77
2022/05/10 12:45:41;;;;;;;13.05;5.93;;;14.10;99.90;;;;;;5094444;28;19910;-75
2022/05/10 12:48:29;;;;;;;9.23;5.30;;;14.20;99.90;;;;;;5094396;28;20047;-75
2022/05/10 12:50:59;;;;;;;10.82;6.18;;;14.10;99.90;;;;;;5094666;28;20004;-75
2022/05/10 12:53:39;;;;;;;16.42;6.25;;;14.10;99.90;;;;;;5094447;28;20506;-75
2022/05/10 12:56:20;;;;;;;10.55;6.00;;;14.10;99.90;;;;;;5094082;28;20030;-75
2022/05/10 12:59:11;;;;;;;16.08;7.38;;;14.20;99.90;;;;;;5094224;28;20028;-75
2022/05/10 13:01:38;;;;;;;13.30;6.15;;;14.10;99.90;;;;;;5082635;28;20133;-74
2022/05/10 13:04:13;;;;;;;11.33;4.83;;;14.10;99.90;;;;;;5094101;28;20027;-75
2022/05/10 13:07:20;;;;;;;12.75;6.93;;;14.20;99.90;;;;;;5075913;28;20500;-76
2022/05/10 13:09:52;;;;;;;15.30;7.40;;;14.10;99.90;;;;;;5093606;28;20367;-75
2022/05/10 13:12:28;;;;;;;14.82;6.45;;;14.20;99.90;;;;;;5093978;28;20036;-76
2022/05/10 13:15:11;;;;;;;10.82;5.88;;;14.30;99.90;;;;;;5093807;28;20020;-74
2022/05/10 13:17:37;;;;;;;9.23;4.85;;;14.40;99.90;;;;;;5093960;28;20020;-76
2022/05/10 13:20:10;;;;;;;10.77;5.15;;;14.40;99.90;;;;;;5093745;28;20103;-74
2022/05/10 13:22:37;;;;;;;12.13;5.97;;;14.50;99.90;;;;;;5093879;28;20028;-73